createdAt,value
2022-09-11T00:01:33.489Z,24.85
2022-09-11T00:04:02.835Z,17.02
2022-09-11T00:06:31.250Z,44.00
2022-09-11T00:09:02.311Z,32.83
2022-09-11T00:11:36.388Z,21.52
2022-09-11T00:14:04.808Z,41.67
2022-09-11T00:16:37.423Z,17.92
2022-09-11T00:19:11.755Z,16.00
2022-09-11T00:21:39.523Z,12.18
2022-09-11T00:24:09.967Z,8.25
2022-09-11T00:26:42.834Z,18.25
2022-09-11T00:29:12.001Z,8.38
2022-09-11T00:31:39.961Z,9.60
2022-09-11T00:34:07.639Z,18.65
2022-09-11T00:36:41.429Z,9.18
2022-09-11T00:39:12.486Z,14.13
2022-09-11T00:41:42.965Z,17.13
2022-09-11T00:44:13.904Z,13.93
2022-09-11T00:46:48.310Z,86.93
2022-09-11T00:49:22.422Z,40.13
2022-09-11T00:51:54.577Z,14.10
2022-09-11T00:54:29.168Z,17.35
2022-09-11T00:56:58.824Z,12.00
2022-09-11T00:59:31.421Z,5.90
2022-09-11T01:01:59.111Z,7.82
2022-09-11T01:04:29.313Z,18.20
2022-09-11T01:06:58.044Z,5.95
2022-09-11T01:09:29.827Z,16.88
2022-09-11T01:12:09.931Z,10.57
2022-09-11T01:14:50.018Z,10.32
2022-09-11T01:17:40.801Z,8.98
2022-09-11T01:20:33.119Z,8.63
2022-09-11T01:23:30.748Z,11.75
2022-09-11T01:26:07.606Z,7.45
2022-09-11T01:29:13.424Z,5.30
2022-09-11T01:31:48.142Z,10.77
2022-09-11T01:34:55.136Z,10.18
2022-09-11T01:37:34.586Z,5.35
2022-09-11T01:40:11.023Z,8.23
2022-09-11T01:42:43.422Z,5.13
2022-09-11T01:45:16.950Z,11.18
2022-09-11T01:47:47.325Z,17.10
2022-09-11T01:50:18.716Z,5.00
2022-09-11T01:52:53.366Z,7.70
2022-09-11T01:58:00.658Z,14.30
2022-09-11T02:00:32.421Z,10.63
2022-09-11T02:03:37.160Z,10.27
2022-09-11T02:06:28.725Z,7.03
2022-09-11T02:09:01.084Z,15.13
2022-09-11T02:11:34.136Z,4.13
2022-09-11T02:14:39.116Z,7.38
2022-09-11T02:17:18.379Z,6.15
2022-09-11T02:19:46.246Z,4.43
2022-09-11T02:22:14.218Z,5.65
2022-09-11T02:24:41.869Z,5.43
2022-09-11T02:27:13.516Z,6.32
2022-09-11T02:29:42.847Z,9.05
2022-09-11T02:32:11.337Z,4.10
2022-09-11T02:34:42.832Z,7.25
2022-09-11T02:37:52.195Z,7.25
2022-09-11T02:40:42.058Z,16.48
2022-09-11T02:43:23.345Z,7.25
2022-09-11T02:46:25.590Z,17.85
2022-09-11T02:49:14.138Z,10.48
2022-09-11T02:52:03.250Z,4.97
2022-09-11T02:54:40.279Z,19.92
2022-09-11T02:57:19.641Z,16.67
2022-09-11T02:59:58.382Z,7.75
2022-09-11T03:02:27.995Z,3.47
2022-09-11T03:04:56.826Z,7.85
2022-09-11T03:07:25.890Z,14.95
2022-09-11T03:09:53.446Z,9.77
2022-09-11T03:12:22.803Z,21.55
2022-09-11T03:14:52.213Z,4.15
2022-09-11T03:17:21.968Z,27.23
2022-09-11T03:19:49.683Z,7.63
2022-09-11T03:22:19.162Z,4.15
2022-09-11T03:24:48.714Z,8.30
2022-09-11T03:27:17.464Z,11.27
2022-09-11T03:29:46.194Z,6.80
2022-09-11T03:32:18.082Z,13.75
2022-09-11T03:34:47.832Z,13.75
2022-09-11T03:37:16.554Z,14.55
2022-09-11T03:39:45.163Z,5.85
2022-09-11T03:42:13.828Z,9.93
2022-09-11T03:44:43.441Z,3.42
2022-09-11T03:47:13.415Z,7.32
2022-09-11T03:49:40.892Z,5.45
2022-09-11T03:52:08.554Z,17.35
2022-09-11T03:54:36.221Z,14.68
2022-09-11T03:57:04.504Z,4.45
2022-09-11T03:59:32.272Z,9.38
2022-09-11T04:02:00.432Z,10.27
2022-09-11T04:04:28.176Z,16.17
2022-09-11T04:06:56.913Z,6.93
2022-09-11T04:09:25.809Z,4.57
2022-09-11T04:11:53.882Z,24.98
2022-09-11T04:14:26.460Z,18.88
2022-09-11T04:16:57.308Z,14.10
2022-09-11T04:19:26.352Z,18.38
2022-09-11T04:21:54.021Z,6.00
2022-09-11T04:24:22.457Z,20.10
2022-09-11T04:26:50.606Z,15.10
2022-09-11T04:29:22.681Z,44.03
2022-09-11T04:31:51.647Z,19.65
2022-09-11T04:34:19.890Z,7.60
2022-09-11T04:36:47.756Z,21.67
2022-09-11T04:39:20.161Z,7.63
2022-09-11T04:41:49.213Z,20.90
2022-09-11T04:44:17.208Z,23.38
2022-09-11T04:46:45.576Z,39.90
2022-09-11T04:49:14.875Z,28.25
2022-09-11T04:51:43.813Z,6.43
2022-09-11T04:54:21.372Z,12.10
2022-09-11T04:59:20.127Z,6.65
2022-09-11T05:02:05.494Z,10.23
2022-09-11T05:04:37.148Z,7.28
2022-09-11T05:07:05.542Z,13.10
2022-09-11T05:09:33.823Z,24.45
2022-09-11T05:12:02.774Z,38.25
2022-09-11T05:14:33.027Z,29.98
2022-09-11T05:17:02.619Z,6.50
2022-09-11T05:19:31.290Z,15.75
2022-09-11T05:21:58.825Z,16.55
2022-09-11T05:24:26.442Z,9.75
2022-09-11T05:26:59.540Z,7.50
2022-09-11T05:29:32.729Z,7.18
2022-09-11T05:32:04.256Z,14.07
2022-09-11T05:34:32.038Z,24.63
2022-09-11T05:37:02.448Z,14.45
2022-09-11T05:39:33.853Z,21.75
2022-09-11T05:42:04.763Z,9.25
2022-09-11T05:44:37.166Z,7.50
2022-09-11T05:47:05.803Z,11.50
2022-09-11T05:49:32.827Z,13.25
2022-09-11T05:52:02.163Z,6.07
2022-09-11T05:54:32.639Z,4.75
2022-09-11T05:57:07.387Z,15.77
2022-09-11T05:59:38.621Z,6.47
2022-09-11T06:02:06.953Z,23.20
2022-09-11T06:04:43.764Z,9.60
2022-09-11T06:07:13.062Z,14.52
2022-09-11T06:09:42.536Z,12.32
2022-09-11T06:12:12.966Z,15.73
2022-09-11T06:14:44.043Z,8.07
2022-09-11T06:17:12.734Z,10.95
2022-09-11T06:19:40.152Z,22.17
2022-09-11T06:22:08.018Z,20.88
2022-09-11T06:24:39.455Z,24.30
2022-09-11T06:27:07.117Z,8.15
2022-09-11T06:29:37.577Z,9.20
2022-09-11T06:32:07.085Z,5.63
2022-09-11T06:34:34.891Z,14.48
2022-09-11T06:37:06.619Z,16.35
2022-09-11T06:39:34.387Z,11.82
2022-09-11T06:42:03.009Z,5.75
2022-09-11T06:44:34.992Z,20.70
2022-09-11T06:47:04.030Z,11.13
2022-09-11T06:49:32.763Z,17.45
2022-09-11T06:52:18.752Z,16.88
2022-09-11T06:54:57.464Z,6.88
2022-09-11T06:57:25.365Z,25.58
2022-09-11T06:59:52.611Z,11.93
2022-09-11T07:02:21.617Z,6.10
2022-09-11T07:04:49.063Z,8.77
2022-09-11T07:07:18.133Z,11.38
2022-09-11T07:09:45.287Z,10.13
2022-09-11T07:12:13.550Z,4.55
2022-09-11T07:14:41.511Z,3.95
2022-09-11T07:17:16.783Z,7.20
2022-09-11T07:19:47.115Z,6.57
2022-09-11T07:22:15.696Z,7.13
2022-09-11T07:24:42.906Z,14.48
2022-09-11T07:27:10.446Z,7.85
2022-09-11T07:29:37.986Z,7.13
2022-09-11T07:32:05.337Z,17.48
2022-09-11T07:34:34.514Z,4.65
2022-09-11T07:37:05.818Z,7.43
2022-09-11T07:39:37.028Z,6.13
2022-09-11T07:42:09.192Z,4.85
2022-09-11T07:44:37.985Z,7.18
2022-09-11T07:47:05.801Z,7.60
2022-09-11T07:49:38.850Z,4.93
2022-09-11T07:52:05.958Z,7.55
2022-09-11T07:54:53.746Z,5.13
2022-09-11T07:57:25.107Z,33.30
2022-09-11T07:59:53.599Z,11.10
2022-09-11T08:02:22.715Z,8.98
2022-09-11T08:04:51.936Z,3.28
2022-09-11T08:07:19.590Z,10.63
2022-09-11T08:09:56.044Z,6.03
2022-09-11T08:12:36.091Z,7.20
2022-09-11T08:15:04.396Z,4.00
2022-09-11T08:17:32.997Z,6.70
2022-09-11T08:20:03.149Z,9.48
2022-09-11T08:22:30.958Z,4.22
2022-09-11T08:24:58.920Z,4.25
2022-09-11T08:27:27.069Z,4.85
2022-09-11T08:29:55.183Z,6.05
2022-09-11T08:32:24.095Z,2.70
2022-09-11T08:34:51.473Z,4.97
2022-09-11T08:37:20.583Z,4.68
2022-09-11T08:39:48.186Z,5.55
2022-09-11T08:42:18.202Z,11.50
2022-09-11T08:44:54.255Z,5.43
2022-09-11T08:47:39.965Z,7.93
2022-09-11T08:50:21.364Z,2.67
2022-09-11T08:52:50.478Z,9.68
2022-09-11T08:55:50.046Z,7.47
2022-09-11T08:58:37.585Z,3.22
2022-09-11T09:01:37.218Z,12.25
2022-09-11T09:04:27.572Z,7.57
2022-09-11T09:06:58.183Z,6.90
2022-09-11T09:09:48.895Z,4.03
2022-09-11T09:12:41.270Z,7.07
2022-09-11T09:15:36.957Z,5.20
2022-09-11T09:18:17.537Z,7.72
2022-09-11T09:21:01.099Z,3.70
2022-09-11T09:23:36.613Z,18.40
2022-09-11T09:26:04.327Z,1.92
2022-09-11T09:28:46.922Z,3.17
2022-09-11T09:31:21.343Z,4.50
2022-09-11T09:33:58.957Z,4.20
2022-09-11T09:36:44.225Z,2.78
2022-09-11T09:39:15.987Z,4.63
2022-09-11T09:42:11.333Z,6.18
2022-09-11T09:45:15.015Z,15.38
2022-09-11T09:47:48.087Z,3.33
2022-09-11T09:50:21.874Z,3.25
2022-09-11T09:52:51.739Z,5.40
2022-09-11T09:55:21.118Z,2.65
2022-09-11T09:57:48.852Z,7.97
2022-09-11T10:00:20.361Z,2.00
2022-09-11T10:02:56.620Z,5.13
2022-09-11T10:05:45.105Z,2.80
2022-09-11T10:08:33.790Z,2.40
2022-09-11T10:11:09.768Z,5.38
2022-09-11T10:13:41.376Z,1.52
2022-09-11T10:16:27.208Z,2.80
2022-09-11T10:18:56.105Z,12.05
2022-09-11T10:21:36.513Z,7.32
2022-09-11T10:24:20.126Z,6.95
2022-09-11T10:26:52.162Z,5.80
2022-09-11T10:29:30.143Z,4.28
2022-09-11T10:32:02.721Z,3.00
2022-09-11T10:34:41.192Z,3.28
2022-09-11T10:37:30.549Z,3.75
2022-09-11T10:40:19.645Z,5.32
2022-09-11T10:42:50.083Z,2.88
2022-09-11T10:45:21.894Z,3.13
2022-09-11T10:47:50.202Z,2.70
2022-09-11T10:50:19.048Z,2.58
2022-09-11T10:53:16.254Z,2.10
2022-09-11T10:55:51.688Z,4.20
2022-09-11T10:58:24.264Z,2.28
2022-09-11T11:00:52.213Z,6.03
2022-09-11T11:03:29.704Z,4.63
2022-09-11T11:06:19.506Z,5.32
2022-09-11T11:09:28.983Z,2.05
2022-09-11T11:12:01.602Z,10.30
2022-09-11T11:15:17.876Z,5.20
2022-09-11T11:18:01.380Z,2.35
2022-09-11T11:20:52.730Z,8.40
2022-09-11T11:23:32.478Z,6.60
2022-09-11T11:26:32.620Z,6.57
2022-09-11T11:29:18.516Z,3.20
2022-09-11T11:32:06.218Z,10.82
2022-09-11T11:35:03.126Z,2.80
2022-09-11T11:37:40.275Z,4.35
2022-09-11T11:40:18.376Z,28.48
2022-09-11T11:42:56.117Z,2.72
2022-09-11T11:46:02.490Z,10.80
2022-09-11T11:48:48.911Z,3.75
2022-09-11T11:51:22.107Z,3.17
2022-09-11T11:54:08.817Z,8.10
2022-09-11T11:56:47.366Z,7.57
2022-09-11T11:59:37.237Z,3.60
2022-09-11T12:02:10.748Z,6.45
2022-09-11T12:04:50.777Z,1.27
2022-09-11T12:07:33.286Z,2.20
2022-09-11T12:10:03.729Z,4.70
2022-09-11T12:12:36.917Z,89.57
2022-09-11T12:15:32.781Z,5.63
2022-09-11T12:18:02.984Z,4.28
2022-09-11T12:20:42.131Z,2.50
2022-09-11T12:23:31.176Z,7.20
2022-09-11T12:26:17.598Z,6.97
2022-09-11T12:28:45.563Z,3.90
2022-09-11T12:31:18.272Z,2.13
2022-09-11T12:33:50.957Z,1.02
2022-09-11T12:36:44.081Z,1.83
2022-09-11T12:39:34.742Z,3.05
2022-09-11T12:42:31.328Z,4.65
2022-09-11T12:45:04.315Z,8.77
2022-09-11T12:47:42.361Z,4.35
2022-09-11T12:50:12.303Z,3.00
2022-09-11T12:52:48.570Z,1.85
2022-09-11T12:55:39.920Z,16.00
2022-09-11T12:58:26.242Z,1.60
2022-09-11T13:01:14.976Z,2.95
2022-09-11T13:04:13.420Z,5.10
2022-09-11T13:06:48.394Z,5.50
2022-09-11T13:09:30.620Z,7.50
2022-09-11T13:12:26.980Z,6.05
2022-09-11T13:15:00.433Z,2.42
2022-09-11T13:17:33.701Z,1.60
2022-09-11T13:20:11.039Z,5.97
2022-09-11T13:22:38.762Z,2.28
2022-09-11T13:25:17.947Z,7.88
2022-09-11T13:28:06.954Z,10.82
2022-09-11T13:30:35.674Z,5.45
2022-09-11T13:33:19.435Z,13.43
2022-09-11T13:35:47.401Z,6.70
2022-09-11T13:38:20.618Z,8.50
2022-09-11T13:40:54.779Z,24.42
2022-09-11T13:43:28.795Z,22.98
2022-09-11T13:46:11.533Z,7.27
2022-09-11T13:48:39.234Z,9.77
2022-09-11T13:51:06.768Z,7.40
2022-09-11T13:53:36.265Z,4.78
2022-09-11T13:56:03.655Z,18.38
2022-09-11T13:58:40.173Z,14.13
2022-09-11T14:01:17.054Z,10.82
2022-09-11T14:03:47.475Z,7.38
2022-09-11T14:06:20.802Z,4.70
2022-09-11T14:08:52.085Z,12.10
2022-09-11T14:11:31.950Z,8.98
2022-09-11T14:14:06.883Z,8.07
2022-09-11T14:16:38.357Z,14.38
2022-09-11T14:19:22.561Z,7.97
2022-09-11T14:21:51.634Z,9.35
2022-09-11T14:24:33.600Z,11.05
2022-09-11T14:27:35.282Z,8.70
2022-09-11T14:30:36.180Z,4.53
2022-09-11T14:33:23.175Z,8.05
2022-09-11T14:35:54.645Z,5.55
2022-09-11T14:38:24.295Z,2.50
2022-09-11T14:40:57.162Z,3.88
2022-09-11T14:43:33.245Z,5.35
2022-09-11T14:46:03.806Z,4.45
2022-09-11T14:48:34.384Z,4.57
2022-09-11T14:51:09.879Z,20.52
2022-09-11T14:53:43.561Z,8.38
2022-09-11T14:56:12.217Z,5.05
2022-09-11T14:58:39.486Z,11.75
2022-09-11T15:01:07.958Z,6.53
2022-09-11T15:03:35.261Z,10.05
2022-09-11T15:06:03.500Z,9.05
2022-09-11T15:08:30.723Z,12.82
2022-09-11T15:10:58.511Z,12.60
2022-09-11T15:13:25.476Z,4.63
2022-09-11T15:15:54.151Z,2.42
2022-09-11T15:18:21.322Z,4.60
2022-09-11T15:20:48.575Z,7.35
2022-09-11T15:23:17.096Z,2.08
2022-09-11T15:25:45.202Z,4.97
2022-09-11T15:28:13.279Z,7.25
2022-09-11T15:30:42.518Z,8.18
2022-09-11T15:33:10.610Z,5.50
2022-09-11T15:35:38.424Z,10.85
2022-09-11T15:38:05.785Z,2.05
2022-09-11T15:40:36.460Z,6.97
2022-09-11T15:43:04.862Z,5.75
2022-09-11T15:45:33.434Z,8.63
2022-09-11T15:48:00.724Z,8.32
2022-09-11T15:50:30.269Z,7.07
2022-09-11T15:52:58.893Z,15.10
2022-09-11T15:55:30.247Z,6.20
2022-09-11T15:58:01.493Z,3.80
2022-09-11T16:00:30.279Z,8.00
2022-09-11T16:02:57.751Z,3.35
2022-09-11T16:05:25.911Z,9.40
2022-09-11T16:07:57.101Z,9.90
2022-09-11T16:10:24.437Z,10.93
2022-09-11T16:12:54.456Z,9.57
2022-09-11T16:15:24.061Z,9.27
2022-09-11T16:17:51.421Z,35.40
2022-09-11T16:20:19.348Z,44.63
2022-09-11T16:22:47.057Z,32.20
2022-09-11T16:25:16.117Z,19.42
2022-09-11T16:27:44.754Z,31.60
2022-09-11T16:30:41.608Z,38.20
2022-09-11T16:33:03.106Z,39.03
2022-09-11T16:35:32.748Z,31.70
2022-09-11T16:38:01.447Z,18.15
2022-09-11T16:40:29.548Z,3.00
2022-09-11T16:42:57.621Z,4.95
2022-09-11T16:45:25.659Z,5.85
2022-09-11T16:47:52.888Z,9.18
2022-09-11T16:50:20.119Z,9.23
2022-09-11T16:52:47.919Z,30.70
2022-09-11T16:55:15.864Z,44.53
2022-09-11T16:57:44.881Z,38.03
2022-09-11T17:00:14.600Z,44.72
2022-09-11T17:02:42.444Z,42.45
2022-09-11T17:05:10.651Z,43.33
2022-09-11T17:07:39.456Z,10.23
2022-09-11T17:10:07.939Z,111.35
2022-09-11T17:12:35.751Z,237.52
2022-09-11T17:15:04.384Z,197.95
2022-09-11T17:17:33.801Z,71.57
2022-09-11T17:20:02.044Z,30.83
2022-09-11T17:22:30.650Z,37.33
2022-09-11T17:24:58.731Z,24.23
2022-09-11T17:27:26.974Z,21.35
2022-09-11T17:29:54.888Z,21.20
2022-09-11T17:32:28.170Z,32.08
2022-09-11T17:34:59.327Z,24.23
2022-09-11T17:37:28.842Z,69.53
2022-09-11T17:39:58.997Z,91.03
2022-09-11T17:42:30.736Z,90.47
2022-09-11T17:45:01.099Z,8.50
2022-09-11T17:47:33.070Z,14.63
2022-09-11T17:50:04.065Z,22.90
2022-09-11T17:52:35.159Z,22.90
2022-09-11T17:55:06.754Z,21.88
2022-09-11T17:57:34.073Z,33.95
2022-09-11T18:00:03.217Z,5.55
2022-09-11T18:02:40.259Z,10.38
2022-09-11T18:05:09.146Z,25.17
2022-09-11T18:07:37.900Z,11.07
2022-09-11T18:10:06.985Z,14.00
2022-09-11T18:12:35.469Z,8.50
2022-09-11T18:15:04.111Z,9.88
2022-09-11T18:17:32.236Z,5.40
2022-09-11T18:19:59.189Z,7.90
2022-09-11T18:22:29.746Z,5.55
2022-09-11T18:24:59.872Z,4.90
2022-09-11T18:27:29.815Z,11.73
2022-09-11T18:29:57.069Z,13.27
2022-09-11T18:32:24.545Z,5.20
2022-09-11T18:34:52.057Z,7.82
2022-09-11T18:37:19.872Z,10.25
2022-09-11T18:39:48.988Z,14.27
2022-09-11T18:42:18.135Z,17.85
2022-09-11T18:44:46.048Z,5.43
2022-09-11T18:47:13.353Z,4.35
2022-09-11T18:49:40.506Z,4.80
2022-09-11T18:52:09.143Z,5.88
2022-09-11T18:54:37.320Z,9.63
2022-09-11T18:57:04.889Z,4.03
2022-09-11T18:59:32.809Z,5.95
2022-09-11T19:02:00.917Z,5.13
2022-09-11T19:04:29.522Z,9.35
2022-09-11T19:06:56.945Z,5.57
2022-09-11T19:09:25.121Z,6.57
2022-09-11T19:11:54.016Z,4.65
2022-09-11T19:14:22.297Z,5.13
2022-09-11T19:16:49.763Z,4.45
2022-09-11T19:19:17.842Z,3.25
2022-09-11T19:21:45.205Z,11.40
2022-09-11T19:24:13.420Z,5.93
2022-09-11T19:26:43.595Z,25.58
2022-09-11T19:29:13.534Z,5.80
2022-09-11T19:31:41.169Z,24.25
2022-09-11T19:34:12.073Z,24.65
2022-09-11T19:36:41.293Z,27.02
2022-09-11T19:39:10.938Z,14.68
2022-09-11T19:41:40.046Z,30.90
2022-09-11T19:44:12.243Z,15.50
2022-09-11T19:46:42.049Z,8.73
2022-09-11T19:49:09.987Z,21.23
2022-09-11T19:51:40.104Z,39.42
2022-09-11T19:54:08.081Z,18.33
2022-09-11T19:56:37.712Z,12.63
2022-09-11T19:59:07.429Z,10.73
2022-09-11T20:01:35.159Z,14.80
2022-09-11T20:04:03.721Z,7.35
2022-09-11T20:06:33.171Z,5.47
2022-09-11T20:09:35.202Z,6.60
2022-09-11T20:11:49.069Z,2.22
2022-09-11T20:14:16.850Z,2.70
2022-09-11T20:16:44.458Z,5.32
2022-09-11T20:19:11.967Z,2.25
2022-09-11T20:21:39.272Z,8.02
2022-09-11T20:24:07.452Z,1.90
2022-09-11T20:26:36.429Z,1.77
2022-09-11T20:29:09.395Z,1.98
2022-09-11T20:31:49.763Z,1.60
2022-09-11T20:34:22.109Z,7.20
2022-09-11T20:36:50.080Z,36.88
2022-09-11T20:39:17.396Z,1.70
2022-09-11T20:41:45.768Z,6.97
2022-09-11T20:44:13.037Z,3.40
2022-09-11T20:46:41.347Z,10.30
2022-09-11T20:49:08.517Z,4.57
2022-09-11T20:51:37.316Z,1.98
2022-09-11T20:54:04.664Z,1.92
2022-09-11T20:56:32.952Z,4.30
2022-09-11T20:59:00.898Z,2.22
2022-09-11T21:01:34.502Z,2.50
2022-09-11T21:04:04.398Z,3.65
2022-09-11T21:06:34.566Z,7.05
2022-09-11T21:09:08.780Z,5.78
2022-09-11T21:11:37.722Z,12.23
2022-09-11T21:14:06.739Z,2.50
2022-09-11T21:16:35.282Z,7.18
2022-09-11T21:19:03.706Z,5.57
2022-09-11T21:21:33.311Z,3.45
2022-09-11T21:24:04.113Z,2.22
2022-09-11T21:26:33.811Z,2.92
2022-09-11T21:29:03.890Z,6.28
2022-09-11T21:31:31.769Z,4.22
2022-09-11T21:33:59.867Z,117.68
2022-09-11T21:36:28.118Z,7.28
2022-09-11T21:38:55.583Z,3.50
2022-09-11T21:41:23.589Z,26.05
2022-09-11T21:43:50.867Z,9.27
2022-09-11T21:46:18.762Z,7.28
2022-09-11T21:48:45.832Z,8.13
2022-09-11T21:51:18.697Z,5.88
2022-09-11T21:53:48.116Z,12.00
2022-09-11T21:56:24.965Z,4.43
2022-09-11T21:58:53.537Z,3.67
2022-09-11T22:01:21.565Z,2.88
2022-09-11T22:03:50.361Z,3.15
2022-09-11T22:06:18.275Z,3.85
2022-09-11T22:08:47.344Z,13.65
2022-09-11T22:11:15.564Z,6.55
2022-09-11T22:13:43.777Z,2.80
2022-09-11T22:16:14.817Z,7.75
2022-09-11T22:18:43.121Z,7.60
2022-09-11T22:21:10.616Z,6.97
2022-09-11T22:23:38.478Z,6.90
2022-09-11T22:26:14.974Z,4.90
2022-09-11T22:28:44.564Z,31.13
2022-09-11T22:31:21.711Z,7.03
2022-09-11T22:33:50.608Z,2.80
2022-09-11T22:36:20.775Z,7.45
2022-09-11T22:38:49.582Z,7.00
2022-09-11T22:41:17.661Z,4.72
2022-09-11T22:43:48.238Z,5.35
2022-09-11T22:46:16.381Z,3.70
2022-09-11T22:48:44.035Z,4.28
2022-09-11T22:51:12.296Z,4.05
2022-09-11T22:53:39.928Z,3.45
2022-09-11T22:56:08.512Z,3.33
2022-09-11T22:58:36.088Z,2.78
2022-09-11T23:01:05.131Z,3.00
2022-09-11T23:03:32.235Z,3.20
2022-09-11T23:06:20.664Z,4.85
2022-09-11T23:08:49.334Z,2.95
2022-09-11T23:11:20.050Z,2.70
2022-09-11T23:13:49.542Z,1.77
2022-09-11T23:16:21.773Z,9.75
2022-09-11T23:19:00.442Z,6.57
2022-09-11T23:21:29.300Z,8.68
2022-09-11T23:23:58.235Z,5.50
2022-09-11T23:26:27.801Z,24.95
2022-09-11T23:28:55.932Z,4.85
2022-09-11T23:31:32.962Z,3.33
2022-09-11T23:34:06.827Z,2.50
2022-09-11T23:36:36.169Z,18.15
2022-09-11T23:39:03.871Z,20.55
2022-09-11T23:41:32.410Z,5.57
2022-09-11T23:44:00.189Z,17.40
2022-09-11T23:46:29.327Z,8.77
2022-09-11T23:48:56.481Z,3.42
2022-09-11T23:51:24.043Z,3.97
2022-09-11T23:53:52.453Z,14.02
2022-09-11T23:56:23.110Z,3.97
2022-09-11T23:58:51.556Z,7.55
